8CL6 weather

Moller Airport
Maxwell, California, United States

Public forecast

Using degrees Fahrenheit for public forecast. Weather courtesy of forecast.io.

Closest aviation weather report (METAR) to Moller Airport

Closest report is Oroville Municipal Airport, 28.9 nm (53.5 km) ENE. Retrieved 2019/10/22 16:53 UTC (53 minutes ago):

KOVE 221653Z AUTO 29003KT 10SM CLR 19/05 A3023 RMK AO2 SLP237 T01890050

Closest aviation forecast (TAF) to Moller Airport

Forecast is more than 6 hours old.

Closest forecast is Beale Air Force Base, 36.2 nm (67.0 km) ESE. Retrieved 2019/10/22 11:03 UTC (7 hours ago):

TAF TAF KBAB 221100Z 2211/2317 VRB06KT 9999 SKC QNH3005INS BECMG 2223/2224 32009KT 9999 SKC QNH2999INS TX30/2223Z TN09/2212Z